Time;durP1;ratioP1;P1;durP2;ratioP2;P2;SDS_P1;SDS_P2;PMS_P1;PMS_P2;Temp;Humidity;BMP_temperature;BMP_pressure;BME280_temperature;BME280_humidity;BME280_pressure;Samples;Min_cycle;Max_cycle;Signal;HPM_P1;HPM_P2
2022/02/03 00:00:31;;;;;;;3.50;2.30;;;;;;;1.75;78.47;97677.98;105107;1273;61138;-23
2022/02/03 00:24:57;;;;;;;3.20;2.70;;;;;;;1.34;79.00;97707.98;104999;1273;61145;-23
2022/02/03 00:30:10;;;;;;;3.30;2.40;;;;;;;0.89;80.62;97714.81;104678;1273;75400;-24
2022/02/03 00:35:40;;;;;;;4.00;2.60;;;;;;;1.66;77.79;97725.29;104595;1274;73634;-24
2022/02/03 00:49:20;;;;;;;3.40;2.10;;;;;;;0.96;80.82;97731.91;104584;1273;73425;-24
2022/02/03 00:51:52;;;;;;;4.80;3.30;;;;;;;1.45;78.97;97730.36;104860;1273;61925;-22
2022/02/03 00:54:23;;;;;;;3.50;2.20;;;;;;;1.44;78.87;97727.86;104778;1273;61219;-22
2022/02/03 00:56:53;;;;;;;3.30;2.30;;;;;;;1.24;80.28;97732.41;104636;1273;73799;-22
2022/02/03 00:59:34;;;;;;;4.10;2.60;;;;;;;0.93;81.71;97734.72;104794;1273;76677;-24
2022/02/03 01:02:05;;;;;;;2.60;1.80;;;;;;;0.75;82.64;97740.08;104617;1273;74174;-25
2022/02/03 01:04:37;;;;;;;2.60;1.80;;;;;;;0.73;83.47;97737.63;104618;1273;61839;-23
2022/02/03 01:07:14;;;;;;;2.00;1.50;;;;;;;1.15;81.73;97733.52;104633;1273;61838;-23
2022/02/03 01:09:56;;;;;;;2.10;1.80;;;;;;;1.14;81.55;97741.27;104653;1273;75530;-23
2022/02/03 01:12:42;;;;;;;2.10;1.60;;;;;;;0.91;82.53;97746.43;104675;1273;75997;-23
2022/02/03 01:34:12;;;;;;;3.70;2.30;;;;;;;-0.04;84.49;97737.66;104807;1273;61040;-23
2022/02/03 01:45:16;;;;;;;4.10;2.80;;;;;;;-0.17;83.65;97762.09;104961;1273;61121;-23
2022/02/03 01:47:55;;;;;;;4.50;3.50;;;;;;;-0.21;83.16;97771.90;104756;1273;61155;-24
2022/02/03 01:52:52;;;;;;;4.90;3.70;;;;;;;-0.49;82.59;97777.05;105131;1273;75781;-23
2022/02/03 01:55:27;;;;;;;4.20;3.70;;;;;;;-0.71;83.82;97781.71;105015;1273;71888;-23
2022/02/03 01:58:12;;;;;;;4.30;3.00;;;;;;;-0.89;84.87;97781.63;104970;1273;61157;-23
2022/02/03 02:00:57;;;;;;;6.00;3.50;;;;;;;-0.93;85.16;97788.35;105004;1273;61090;-23
2022/02/03 02:03:36;;;;;;;4.80;3.20;;;;;;;-0.54;83.46;97796.12;104834;1273;74787;-22
2022/02/03 02:06:23;;;;;;;5.30;4.00;;;;;;;-0.75;83.11;97789.23;104856;1273;74338;-22
2022/02/03 02:09:29;;;;;;;4.10;3.20;;;;;;;-0.89;83.78;97793.23;104972;1273;74431;-22
2022/02/03 02:12:16;;;;;;;3.10;2.80;;;;;;;-1.02;84.23;97803.80;104974;1273;61135;-22
2022/02/03 02:41:29;;;;;;;6.50;4.70;;;;;;;-1.42;83.49;97831.28;104956;1273;61157;-23
2022/02/03 02:43:46;;;;;;;6.10;5.40;;;;;;;-1.20;82.96;97835.91;105103;1273;61109;-24
2022/02/03 02:46:22;;;;;;;5.70;4.00;;;;;;;-1.25;83.26;97847.60;105028;1273;75865;-23
2022/02/03 02:49:09;;;;;;;6.70;4.90;;;;;;;-1.25;83.58;97860.88;104631;1273;75174;-24
2022/02/03 02:51:58;;;;;;;6.60;4.70;;;;;;;-1.46;84.44;97862.30;104638;1273;73450;-22
2022/02/03 02:55:14;;;;;;;7.30;4.50;;;;;;;-1.29;83.55;97862.64;104992;1273;61125;-24
2022/02/03 03:00:46;;;;;;;8.40;5.40;;;;;;;-1.41;83.71;97867.17;104678;1273;75332;-23
2022/02/03 03:29:12;;;;;;;5.90;4.00;;;;;;;-1.59;84.86;97930.02;104840;1273;73055;-24
2022/02/03 03:32:02;;;;;;;5.70;4.60;;;;;;;-1.43;84.14;97943.05;104627;1273;76159;-23
2022/02/03 03:37:15;;;;;;;9.50;6.70;;;;;;;-1.97;85.50;97944.28;104763;1273;61150;-23
2022/02/03 03:39:47;;;;;;;7.80;5.70;;;;;;;-1.92;85.40;97949.14;104788;1273;62101;-23
2022/02/03 03:42:18;;;;;;;8.80;4.80;;;;;;;-1.66;84.46;97952.69;104682;1273;75353;-23
2022/02/03 03:44:46;;;;;;;6.40;4.70;;;;;;;-1.59;84.11;97965.61;104650;1273;75894;-23
2022/02/03 03:47:19;;;;;;;8.00;5.10;;;;;;;-1.80;84.47;97969.18;104634;1273;74121;-23
2022/02/03 03:49:48;;;;;;;9.80;5.90;;;;;;;-1.92;85.18;97968.21;104674;1272;61287;-23
2022/02/03 03:52:23;;;;;;;9.10;6.30;;;;;;;-1.91;85.66;97967.33;104650;1271;61075;-23
2022/02/03 03:55:01;;;;;;;11.90;7.10;;;;;;;-1.71;84.74;97978.27;104693;1272;75480;-23
2022/02/03 04:00:35;;;;;;;10.60;6.60;;;;;;;-2.01;85.69;97985.63;104677;1273;73362;-23
2022/02/03 05:26:53;;;;;;;13.70;6.80;;;;;;;-1.75;84.54;98154.07;104979;1273;76091;-23
2022/02/03 05:47:45;;;;;;;14.50;7.70;;;;;;;-1.42;81.59;98184.42;105006;1273;61047;-23
2022/02/03 05:50:29;;;;;;;13.20;6.80;;;;;;;-1.70;83.12;98199.14;105127;1273;61127;-23
2022/02/03 06:09:47;;;;;;;16.80;9.00;;;;;;;-1.20;80.25;98242.52;104797;1273;76054;-23
2022/02/03 06:15:01;;;;;;;15.50;9.40;;;;;;;-1.52;80.73;98253.63;105131;1272;61032;-23
2022/02/03 06:22:52;;;;;;;19.90;10.30;;;;;;;-1.63;80.24;98264.17;105139;1273;73929;-23
2022/02/03 06:27:58;;;;;;;22.00;11.80;;;;;;;-1.49;79.88;98285.37;104834;1273;61182;-23
2022/02/03 06:30:27;;;;;;;17.10;10.00;;;;;;;-1.65;80.76;98279.41;104808;1273;61033;-23
2022/02/03 06:32:55;;;;;;;19.50;10.70;;;;;;;-1.73;81.15;98284.35;104781;1273;74282;-23
2022/02/03 06:35:24;;;;;;;20.20;11.60;;;;;;;-1.50;80.20;98284.39;104749;1273;75796;-23
2022/02/03 06:37:52;;;;;;;20.90;11.70;;;;;;;-1.33;79.01;98279.89;104749;1273;74185;-23
2022/02/03 06:40:21;;;;;;;21.70;9.40;;;;;;;-1.51;79.79;98289.70;104823;1273;61462;-23
2022/02/03 06:42:55;;;;;;;18.50;10.20;;;;;;;-1.50;79.88;98299.20;104744;1273;61177;-23
2022/02/03 06:45:37;;;;;;;13.80;7.80;;;;;;;-1.70;80.77;98298.36;104773;1273;73769;-23
2022/02/03 06:48:13;;;;;;;17.60;10.80;;;;;;;-1.55;80.49;98304.38;104783;1272;75051;-23
2022/02/03 06:50:46;;;;;;;19.50;11.30;;;;;;;-1.52;80.55;98307.44;104741;1273;75396;-23
2022/02/03 06:53:25;;;;;;;18.40;10.60;;;;;;;-1.38;80.19;98307.70;104683;1273;61027;-23
2022/02/03 06:56:08;;;;;;;18.30;10.30;;;;;;;-1.57;80.60;98313.29;104779;1273;62119;-23
2022/02/03 06:58:53;;;;;;;17.70;10.00;;;;;;;-1.77;81.48;98311.09;104683;1273;74689;-23
2022/02/03 07:01:34;;;;;;;16.00;9.00;;;;;;;-1.88;82.22;98317.15;104780;1273;76063;-23
2022/02/03 07:04:13;;;;;;;13.70;6.90;;;;;;;-1.55;80.97;98324.27;104885;1273;74442;-23
2022/02/03 07:06:42;;;;;;;17.40;7.90;;;;;;;-1.49;80.20;98327.24;104753;1273;61138;-24
2022/02/03 07:09:10;;;;;;;19.20;10.00;;;;;;;-1.82;81.13;98324.90;104789;1273;62121;-23
2022/02/03 07:11:41;;;;;;;19.70;9.80;;;;;;;-1.92;81.58;98335.87;105045;1273;75223;-23
2022/02/03 07:14:11;;;;;;;15.10;9.00;;;;;;;-1.81;81.30;98348.70;104807;1273;75769;-23
2022/02/03 07:16:48;;;;;;;14.50;6.70;;;;;;;-1.57;80.22;98348.87;104873;1273;72898;-23
2022/02/03 07:19:16;;;;;;;16.50;8.80;;;;;;;-1.38;79.52;98359.46;104752;1273;61038;-23
2022/02/03 07:21:47;;;;;;;14.90;8.00;;;;;;;-1.59;80.40;98362.58;104801;1272;62209;-22
2022/02/03 07:24:15;;;;;;;14.00;8.30;;;;;;;-1.91;81.91;98359.13;104744;1273;74847;-23
2022/02/03 07:26:44;;;;;;;17.70;9.10;;;;;;;-1.85;82.68;98370.95;104898;1273;76037;-23
2022/02/03 07:29:13;;;;;;;16.30;8.90;;;;;;;-1.44;80.95;98374.36;105131;1273;73246;-22
2022/02/03 07:31:41;;;;;;;13.30;7.80;;;;;;;-1.48;80.90;98379.64;104884;1273;61363;-23
2022/02/03 07:34:14;;;;;;;13.80;7.70;;;;;;;-1.60;81.70;98383.53;104767;1273;61080;-22
2022/02/03 07:36:45;;;;;;;15.20;7.90;;;;;;;-1.73;81.97;98390.86;104770;1273;74614;-23
2022/02/03 07:39:13;;;;;;;23.00;10.60;;;;;;;-1.76;82.62;98389.33;104672;1273;75939;-22
2022/02/03 07:41:42;;;;;;;16.80;9.50;;;;;;;-1.75;82.40;98379.58;104774;1273;74546;-23
2022/02/03 07:44:14;;;;;;;12.50;7.30;;;;;;;-1.65;82.07;98386.51;104802;1273;61882;-23
2022/02/03 07:46:42;;;;;;;16.80;9.70;;;;;;;-1.66;82.03;98390.94;104823;1273;61172;-23
2022/02/03 07:49:11;;;;;;;20.80;10.00;;;;;;;-1.86;82.65;98387.52;104860;1273;75496;-23
2022/02/03 07:51:39;;;;;;;16.50;9.30;;;;;;;-2.06;83.47;98392.38;104888;1273;75085;-23
2022/02/03 07:54:09;;;;;;;18.20;9.80;;;;;;;-2.15;84.04;98387.65;104758;1273;72216;-23
2022/02/03 07:56:38;;;;;;;16.10;10.00;;;;;;;-1.92;83.29;98404.63;104713;1273;62666;-23
2022/02/03 07:59:06;;;;;;;21.60;11.70;;;;;;;-1.88;82.66;98412.77;104743;1272;62022;-25
2022/02/03 08:01:34;;;;;;;14.30;8.40;;;;;;;-2.14;83.32;98412.80;104809;1273;75536;-24
2022/02/03 08:04:06;;;;;;;20.50;9.40;;;;;;;-2.23;83.81;98416.70;104815;1273;75738;-24
2022/02/03 08:06:39;;;;;;;17.10;10.10;;;;;;;-2.33;84.22;98418.48;104737;1273;73277;-24
2022/02/03 08:09:15;;;;;;;;;;;;;;;-2.15;83.27;98428.30;104827;1273;61092;-23
2022/02/03 08:11:47;;;;;;;16.40;8.80;;;;;;;-2.02;82.23;98426.08;104693;1273;61143;-23
2022/02/03 08:14:24;;;;;;;17.00;10.10;;;;;;;-2.07;82.41;98432.42;105024;1273;73543;-22
2022/02/03 08:16:58;;;;;;;13.70;7.80;;;;;;;-2.25;82.63;98431.58;105084;1273;74479;-24
2022/02/03 08:22:05;;;;;;;16.30;9.30;;;;;;;-2.11;81.97;98438.53;104991;1273;61441;-24
2022/02/03 08:25:02;;;;;;;15.70;8.70;;;;;;;-2.25;81.60;98440.10;105118;1273;61139;-24
2022/02/03 08:32:51;;;;;;;15.70;8.60;;;;;;;-2.29;81.16;98474.09;105080;1273;73901;-23
2022/02/03 08:35:34;;;;;;;12.40;7.50;;;;;;;-2.14;80.38;98475.89;105022;1273;61078;-23
2022/02/03 08:43:14;;;;;;;14.00;6.90;;;;;;;-2.32;80.58;98482.17;105028;1273;75283;-23
2022/02/03 08:45:44;;;;;;;12.70;6.80;;;;;;;-2.39;80.88;98478.53;104710;1273;72772;-23
2022/02/03 08:48:13;;;;;;;15.30;9.20;;;;;;;-2.25;80.44;98483.64;104806;1273;61292;-23
2022/02/03 08:50:42;;;;;;;13.00;7.20;;;;;;;-2.19;79.51;98487.66;104639;1273;61247;-24
2022/02/03 08:54:04;;;;;;;16.10;8.60;;;;;;;-2.27;79.32;98486.42;104852;1273;74245;-23
2022/02/03 09:30:33;;;;;;;13.80;6.70;;;;;;;-2.89;81.00;98521.80;105102;1273;61156;-23
2022/02/03 09:54:09;;;;;;;8.40;4.30;;;;;;;-3.19;78.60;98570.17;104607;1273;72202;-23
2022/02/03 09:59:11;;;;;;;7.30;5.30;;;;;;;-2.86;77.07;98570.45;104793;1273;61023;-23
2022/02/03 10:01:44;;;;;;;9.10;6.20;;;;;;;-3.05;77.22;98565.48;104855;1273;75719;-23
2022/02/03 10:04:25;;;;;;;10.70;5.50;;;;;;;-3.12;77.28;98569.44;104869;1273;75878;-23
2022/02/03 10:06:57;;;;;;;8.20;5.10;;;;;;;-3.22;77.95;98571.48;104671;1273;74868;-23
2022/02/03 10:09:41;;;;;;;6.50;4.20;;;;;;;-3.46;77.72;98565.80;104629;1274;61105;-23
2022/02/03 10:12:10;;;;;;;6.10;3.70;;;;;;;-3.32;77.47;98581.80;105004;1273;61822;-23
2022/02/03 10:14:59;;;;;;;6.80;4.50;;;;;;;-2.97;75.46;98575.91;104981;1273;75934;-23
2022/02/03 10:17:41;;;;;;;7.10;4.50;;;;;;;-3.03;75.00;98577.63;105087;1273;75510;-23
2022/02/03 10:20:12;;;;;;;8.50;4.90;;;;;;;-3.14;75.35;98596.52;104764;1273;73529;-23
2022/02/03 10:22:49;;;;;;;7.40;4.20;;;;;;;-3.28;75.74;98588.98;104679;1273;61010;-23
2022/02/03 10:25:27;;;;;;;5.90;3.80;;;;;;;-3.35;76.00;98595.83;104610;1275;61167;-23
2022/02/03 10:28:05;;;;;;;6.70;4.10;;;;;;;-3.39;76.03;98608.67;104857;1273;74004;-23
2022/02/03 10:30:40;;;;;;;7.70;4.40;;;;;;;-3.13;75.40;98607.70;104587;1273;174963;-23
2022/02/03 10:33:09;;;;;;;8.70;5.70;;;;;;;-3.09;74.93;98614.86;104812;1273;73158;-23
2022/02/03 10:43:47;;;;;;;8.60;5.50;;;;;;;-3.44;77.81;98621.23;105104;1273;75762;-23
2022/02/03 11:06:08;;;;;;;8.30;4.90;;;;;;;-2.93;75.36;98651.70;104773;1273;61075;-24
2022/02/03 11:11:13;;;;;;;9.00;5.10;;;;;;;-3.30;76.42;98653.23;104744;1273;77189;-24
2022/02/03 11:13:41;;;;;;;9.80;5.40;;;;;;;-3.52;76.96;98647.27;104838;1273;74441;-23
2022/02/03 11:16:11;;;;;;;8.10;5.20;;;;;;;-3.61;77.14;98646.86;104762;1273;60994;-24
2022/02/03 11:18:49;;;;;;;8.30;5.30;;;;;;;-3.73;77.61;98644.48;105019;1273;61118;-23
2022/02/03 11:21:17;;;;;;;11.10;6.60;;;;;;;-3.28;76.43;98651.98;104942;1274;75568;-23
2022/02/03 11:24:03;;;;;;;12.90;6.10;;;;;;;-3.34;76.48;98657.77;105113;1273;75955;-23
2022/02/03 11:43:04;;;;;;;10.00;6.40;;;;;;;-3.84;76.49;98662.77;104982;1272;61020;-23
2022/02/03 11:54:23;;;;;;;9.40;5.60;;;;;;;-3.91;74.78;98675.54;104967;1273;74478;-23
2022/02/03 11:57:29;;;;;;;8.20;5.20;;;;;;;-3.75;73.81;98681.05;101835;1310;600550;-24
2022/02/03 12:00:37;;;;;;;9.30;5.20;;;;;;;-3.78;72.97;98676.20;104471;1281;61083;-24
2022/02/03 12:16:59;;;;;;;8.50;4.40;;;;;;;-3.87;71.46;98715.62;104482;1279;61355;-24
2022/02/03 12:22:06;;;;;;;8.70;5.30;;;;;;;-3.81;71.17;98718.00;104680;1279;74981;-23
2022/02/03 12:24:47;;;;;;;8.40;5.20;;;;;;;-4.03;71.63;98700.96;104486;1281;74171;-23
2022/02/03 12:27:29;;;;;;;9.60;5.00;;;;;;;-4.03;72.10;98705.71;104525;1281;61647;-23
2022/02/03 12:30:03;;;;;;;10.50;5.80;;;;;;;-4.19;73.34;98704.13;104541;1281;61784;-23
2022/02/03 12:45:54;;;;;;;8.90;5.50;;;;;;;-4.10;72.47;98722.36;104698;1281;74467;-23
2022/02/03 12:48:25;;;;;;;7.30;4.40;;;;;;;-4.29;72.65;98722.50;104555;1281;76242;-23
2022/02/03 12:50:54;;;;;;;11.10;7.00;;;;;;;-4.31;73.05;98716.13;104570;1281;74488;-23
2022/02/03 12:53:28;;;;;;;10.50;5.70;;;;;;;-4.47;74.28;98725.36;104674;1281;61137;-23
2022/02/03 12:55:56;;;;;;;9.50;4.60;;;;;;;-4.35;74.24;98728.95;104433;1281;61203;-23
2022/02/03 12:58:26;;;;;;;6.50;4.10;;;;;;;-4.19;73.62;98726.34;104400;1281;74688;-23
2022/02/03 13:03:33;;;;;;;5.90;4.20;;;;;;;-3.83;71.73;98729.77;104487;1281;72942;-23
2022/02/03 13:06:05;;;;;;;14.50;7.30;;;;;;;-3.96;72.22;98735.55;104610;1281;61039;-23
2022/02/03 13:08:47;;;;;;;10.70;5.40;;;;;;;-4.18;72.29;98734.77;104489;1280;62011;-23
2022/02/03 13:19:59;;;;;;;5.60;3.30;;;;;;;-4.62;72.38;98747.76;104439;1281;61244;-23
2022/02/03 13:22:43;;;;;;;5.00;3.10;;;;;;;-4.50;72.19;98759.50;104315;1281;61166;-23
2022/02/03 13:30:41;;;;;;;5.70;3.30;;;;;;;-4.19;70.20;98767.70;104460;1279;73420;-23
2022/02/03 13:33:16;;;;;;;9.80;4.80;;;;;;;-4.24;70.63;98777.99;104431;1281;61160;-23
2022/02/03 13:38:39;;;;;;;38.20;14.80;;;;;;;-4.60;70.84;98787.17;104395;1281;74963;-23
2022/02/03 13:45:28;;;;;;;12.50;8.00;;;;;;;-4.71;69.97;98784.73;104590;1281;74101;-22
2022/02/03 13:47:57;;;;;;;6.10;3.70;;;;;;;-4.77;70.22;98792.47;104610;1281;61156;-23
2022/02/03 13:50:29;;;;;;;7.60;5.40;;;;;;;-4.44;69.93;98796.77;104632;1281;61029;-24
2022/02/03 13:53:18;;;;;;;9.10;3.90;;;;;;;-4.17;68.72;98789.02;104568;1281;73314;-23
2022/02/03 14:29:18;;;;;;;40.20;17.40;;;;;;;-4.19;69.10;98805.18;103578;1287;61052;-23
2022/02/03 14:31:56;;;;;;;;;;;;;;;-4.38;69.31;98807.31;103638;1286;62100;-24
2022/02/03 14:34:30;;;;;;;186.90;64.00;;;;;;;-4.44;69.56;98813.57;103678;1286;73709;-25
2022/02/03 14:42:17;;;;;;;12.30;9.40;;;;;;;-4.57;69.75;98832.17;103636;1286;61261;-24
2022/02/03 14:44:47;;;;;;;275.20;78.70;;;;;;;-4.56;70.33;98833.86;103959;1281;61152;-24
2022/02/03 14:47:15;;;;;;;160.10;45.00;;;;;;;-4.40;69.79;98838.39;104306;1281;74940;-24
2022/02/03 14:49:45;;;;;;;412.00;111.20;;;;;;;-3.77;67.74;98833.61;104379;1281;74923;-23
2022/02/03 14:52:30;;;;;;;163.30;43.30;;;;;;;-3.50;66.52;98829.48;104589;1281;73538;-22
2022/02/03 14:58:12;;;;;;;46.20;16.20;;;;;;;-3.94;67.18;98829.11;104621;1281;62175;-23
2022/02/03 15:00:47;;;;;;;7.10;3.30;;;;;;;-4.01;67.75;98823.89;104510;1280;74576;-23
2022/02/03 15:03:17;;;;;;;6.90;3.80;;;;;;;-4.14;68.28;98825.23;104635;1281;76006;-22
2022/02/03 15:05:53;;;;;;;10.30;6.00;;;;;;;-4.17;68.78;98825.28;104434;1281;73469;-23
2022/02/03 15:11:26;;;;;;;9.10;5.90;;;;;;;-4.36;69.81;98829.30;104760;1274;62825;-22
2022/02/03 15:13:55;;;;;;;;;;;;;;;-4.45;70.08;98835.80;104795;1274;73795;-22
2022/02/03 15:16:26;;;;;;;6.00;3.30;;;;;;;-4.54;70.34;98838.88;104835;1274;76059;-22
2022/02/03 15:19:15;;;;;;;1.70;1.30;;;;;;;-4.59;70.73;98837.80;104615;1274;73345;-23
2022/02/03 15:21:44;;;;;;;9.30;5.50;;;;;;;-4.60;71.00;98840.71;104904;1274;61088;-23
2022/02/03 15:24:13;;;;;;;6.30;3.90;;;;;;;-4.25;70.59;98842.60;104898;1274;61045;-22
2022/02/03 15:26:42;;;;;;;10.10;3.60;;;;;;;-3.68;68.01;98841.34;104897;1274;73755;-22
2022/02/03 15:29:12;;;;;;;21.10;8.30;;;;;;;-3.45;67.49;98838.53;104743;1274;74865;-23
2022/02/03 15:31:42;;;;;;;7.20;3.40;;;;;;;-3.55;67.29;98832.70;104884;1274;72904;-23
2022/02/03 15:34:31;;;;;;;4.30;2.50;;;;;;;-3.79;67.98;98836.03;104719;1274;61148;-23
2022/02/03 15:37:15;;;;;;;9.00;5.10;;;;;;;-4.04;69.25;98845.99;104891;1274;61677;-23
2022/02/03 15:39:52;;;;;;;4.10;2.40;;;;;;;-4.09;69.58;98850.02;104743;1276;70678;-23
2022/02/03 15:42:28;;;;;;;15.30;6.40;;;;;;;-4.19;70.04;98854.84;104784;1274;76069;-24
2022/02/03 15:44:58;;;;;;;4.50;2.40;;;;;;;-4.23;70.45;98853.93;104952;1274;73074;-24
2022/02/03 15:47:34;;;;;;;8.50;4.40;;;;;;;-4.33;70.80;98856.35;104750;1275;61045;-25
2022/02/03 16:16:57;;;;;;;3.30;1.90;;;;;;;-4.01;69.86;98890.36;104867;1274;61135;-23
2022/02/03 16:19:34;;;;;;;4.20;2.40;;;;;;;-4.15;70.30;98890.35;104849;1274;73031;-23
2022/02/03 16:22:12;;;;;;;2.70;1.90;;;;;;;-4.26;70.68;98892.81;105089;1272;73344;-23
2022/02/03 16:25:06;;;;;;;7.00;2.60;;;;;;;-4.36;70.89;98894.23;105142;1271;72617;-23
2022/02/03 16:52:43;;;;;;;26.10;10.40;;;;;;;-4.05;69.80;98907.23;104913;1271;71328;-23
2022/02/03 16:55:16;;;;;;;11.80;5.50;;;;;;;-4.39;70.62;98909.38;104755;1271;61157;-23
2022/02/03 16:57:47;;;;;;;63.20;20.70;;;;;;;-4.68;71.91;98903.59;105008;1271;62095;-23
2022/02/03 17:00:18;;;;;;;7.10;3.20;;;;;;;-5.02;72.82;98904.28;105042;1271;74350;-23
2022/02/03 17:03:06;;;;;;;7.30;3.80;;;;;;;-5.27;73.34;98905.77;104862;1271;73986;-23
2022/02/03 17:05:38;;;;;;;9.10;5.30;;;;;;;-5.37;73.47;98908.52;104928;1271;74430;-23
2022/02/03 17:08:07;;;;;;;8.70;4.80;;;;;;;-5.48;73.26;98911.58;105100;1272;62123;-23
2022/02/03 17:10:36;;;;;;;7.70;3.30;;;;;;;-5.63;73.66;98914.89;105123;1271;61052;-23
2022/02/03 17:13:05;;;;;;;7.40;3.40;;;;;;;-5.77;73.74;98919.36;105152;1271;75309;-23
2022/02/03 17:15:35;;;;;;;6.90;2.80;;;;;;;-5.26;72.16;98927.40;104914;1271;73720;-23
2022/02/03 17:18:04;;;;;;;6.60;3.40;;;;;;;-4.55;69.58;98931.93;104738;1272;74689;-23
2022/02/03 17:20:35;;;;;;;5.70;3.70;;;;;;;-4.45;68.25;98935.44;104845;1271;61157;-23
2022/02/03 17:23:07;;;;;;;4.70;3.10;;;;;;;-4.69;68.42;98935.61;105106;1271;61048;-23
2022/02/03 17:28:38;;;;;;;1.90;1.60;;;;;;;-5.56;70.56;98928.47;104875;1271;75836;-23
2022/02/03 17:31:15;;;;;;;3.50;2.20;;;;;;;-5.90;71.74;98926.52;104792;1274;73232;-23
2022/02/03 18:10:22;;;;;;;2.70;1.70;;;;;;;-6.36;71.36;98935.17;104653;1271;75999;-23
2022/02/03 18:19:39;;;;;;;6.00;2.90;;;;;;;-6.88;73.45;98928.77;104797;1272;61133;-23
2022/02/03 18:36:15;;;;;;;3.10;1.90;;;;;;;-6.26;69.38;98915.27;105164;1271;73481;-22
2022/02/03 18:54:21;;;;;;;3.80;1.60;;;;;;;-7.11;72.80;98906.95;105139;1271;74220;-23
2022/02/03 20:07:42;;;;;;;7.00;3.20;;;;;;;-7.13;72.78;98897.85;105072;1271;61119;-24
2022/02/03 20:10:32;;;;;;;3.00;2.20;;;;;;;-7.34;73.22;98905.52;104822;1271;75565;-24
2022/02/03 20:13:01;;;;;;;4.80;2.30;;;;;;;-7.54;74.23;98904.71;104884;1271;75056;-24
2022/02/03 20:15:45;;;;;;;4.80;2.60;;;;;;;-7.67;74.44;98905.52;105055;1271;73535;-24
2022/02/03 20:18:17;;;;;;;5.20;1.80;;;;;;;-7.75;75.38;98903.73;105093;1274;61151;-24
2022/02/03 20:20:46;;;;;;;3.60;1.50;;;;;;;-7.80;74.99;98899.73;105093;1271;62281;-24
2022/02/03 20:23:17;;;;;;;5.60;2.20;;;;;;;-7.27;75.05;98902.39;105058;1271;72820;-24
2022/02/03 20:25:53;;;;;;;3.80;2.20;;;;;;;-6.34;72.75;98902.37;104955;1272;74524;-24
2022/02/03 20:28:25;;;;;;;3.70;1.80;;;;;;;-6.01;71.73;98912.67;104859;1271;72319;-24
2022/02/03 20:30:54;;;;;;;2.80;1.50;;;;;;;-6.11;71.28;98906.41;105064;1271;61115;-23
2022/02/03 20:33:22;;;;;;;4.10;1.60;;;;;;;-6.33;71.00;98905.23;104954;1271;62402;-23
2022/02/03 20:35:51;;;;;;;3.50;1.50;;;;;;;-6.56;71.59;98903.69;105133;1272;72698;-23
2022/02/03 20:38:20;;;;;;;2.80;1.60;;;;;;;-6.76;71.93;98905.16;105166;1271;73174;-23
2022/02/03 20:40:49;;;;;;;4.40;1.50;;;;;;;-6.96;73.12;98898.82;105151;1271;73080;-23
2022/02/03 20:43:18;;;;;;;1.90;1.10;;;;;;;-7.02;73.19;98899.23;105144;1271;61831;-23
2022/02/03 20:45:46;;;;;;;2.80;1.80;;;;;;;-7.07;72.80;98895.75;105141;1271;61174;-24
2022/02/03 20:48:15;;;;;;;5.20;2.20;;;;;;;-7.13;73.09;98897.52;105162;1271;75484;-23
2022/02/03 20:50:46;;;;;;;3.70;2.10;;;;;;;-7.22;73.40;98900.15;105111;1271;75188;-23
2022/02/03 20:53:16;;;;;;;2.20;1.50;;;;;;;-7.30;73.85;98899.55;104895;1271;72852;-23
2022/02/03 20:55:45;;;;;;;3.40;1.50;;;;;;;-7.18;74.12;98892.17;104673;1271;61048;-23
2022/02/03 20:58:17;;;;;;;3.80;1.90;;;;;;;-6.21;73.43;98896.91;104755;1274;61170;-23
2022/02/03 21:00:59;;;;;;;4.80;2.10;;;;;;;-5.35;71.19;98889.35;104727;1272;74007;-23
2022/02/03 21:03:50;;;;;;;5.70;2.50;;;;;;;-5.16;70.40;98878.16;104812;1271;76116;-23
2022/02/03 21:06:18;;;;;;;5.40;3.00;;;;;;;-5.31;70.57;98882.33;104969;1271;74618;-23
2022/02/03 21:08:49;;;;;;;5.30;2.90;;;;;;;-5.48;71.14;98875.20;104917;1271;61151;-23
2022/02/03 21:11:18;;;;;;;4.40;2.20;;;;;;;-5.63;71.39;98878.86;104939;1271;61009;-23
2022/02/03 21:13:47;;;;;;;3.60;2.70;;;;;;;-5.78;71.69;98887.08;104893;1271;75700;-23
2022/02/03 21:16:35;;;;;;;3.00;1.70;;;;;;;-5.98;72.89;98896.89;104750;1271;75750;-24
2022/02/03 21:19:05;;;;;;;3.30;2.10;;;;;;;-6.10;71.73;98903.53;104905;1271;73374;-23
2022/02/03 21:21:34;;;;;;;3.10;1.90;;;;;;;-6.35;71.88;98899.17;104816;1271;60953;-24
2022/02/03 21:24:15;;;;;;;2.80;1.80;;;;;;;-6.61;72.51;98901.59;104889;1271;61084;-23
2022/02/03 21:26:44;;;;;;;1.70;1.20;;;;;;;-6.51;73.10;98902.11;104900;1271;75553;-23
2022/02/03 21:29:13;;;;;;;3.20;2.20;;;;;;;-5.71;72.27;98901.83;105087;1271;75915;-24
2022/02/03 21:31:42;;;;;;;4.60;2.70;;;;;;;-5.34;70.34;98898.46;105135;1271;74423;-24
2022/02/03 21:34:15;;;;;;;9.60;5.20;;;;;;;-5.38;69.97;98900.59;105133;1271;61151;-23
2022/02/03 21:36:44;;;;;;;7.60;3.60;;;;;;;-5.59;70.21;98899.25;105080;1271;61138;-23
2022/02/03 21:39:13;;;;;;;8.70;3.30;;;;;;;-5.83;70.48;98895.95;105127;1271;74544;-23
2022/02/03 21:41:42;;;;;;;6.70;3.80;;;;;;;-6.08;70.67;98893.02;104780;1271;75100;-23
2022/02/03 21:44:15;;;;;;;7.20;3.40;;;;;;;-6.30;70.97;98888.46;104836;1271;74290;-24
2022/02/03 21:46:44;;;;;;;5.10;2.70;;;;;;;-6.48;72.47;98886.02;105127;1271;62228;-24
2022/02/03 21:49:14;;;;;;;6.40;3.20;;;;;;;-6.54;73.71;98882.90;105164;1271;62152;-24
2022/02/03 21:51:45;;;;;;;5.60;3.00;;;;;;;-6.55;74.45;98876.66;105118;1274;71754;-23
2022/02/03 21:54:14;;;;;;;4.90;2.60;;;;;;;-6.53;74.06;98873.09;105099;1271;76107;-23
2022/02/03 21:56:44;;;;;;;5.80;3.40;;;;;;;-6.52;74.22;98874.92;105045;1271;74761;-24
2022/02/03 21:59:15;;;;;;;5.70;3.30;;;;;;;-6.51;73.60;98870.52;104847;1271;62152;-23
2022/02/03 22:01:44;;;;;;;6.20;3.20;;;;;;;-6.52;74.07;98866.98;104795;1271;61108;-23
2022/02/03 22:04:12;;;;;;;3.80;2.00;;;;;;;-6.49;73.88;98865.10;104919;1271;75328;-23
2022/02/03 22:06:41;;;;;;;4.00;2.40;;;;;;;-5.87;74.23;98870.14;104956;1271;75962;-23
2022/02/03 22:09:10;;;;;;;8.40;3.40;;;;;;;-4.66;72.12;98872.18;104945;1271;74445;-23
2022/02/03 22:11:39;;;;;;;4.80;2.40;;;;;;;-4.06;70.33;98867.95;104954;1271;62073;-23
2022/02/03 22:14:08;;;;;;;5.20;3.40;;;;;;;-3.98;69.44;98863.48;105110;1271;61036;-23
2022/02/03 22:16:37;;;;;;;5.60;3.00;;;;;;;-4.12;69.68;98869.75;105158;1271;74343;-23
2022/02/03 22:19:07;;;;;;;6.20;2.60;;;;;;;-4.30;70.04;98877.30;105149;1271;75714;-23
2022/02/03 22:24:26;;;;;;;5.60;2.30;;;;;;;-4.63;70.77;98875.52;105052;1271;61066;-24
2022/02/03 22:43:36;;;;;;;3.90;2.60;;;;;;;-5.40;73.98;98863.90;105103;1271;73183;-23
2022/02/03 22:48:36;;;;;;;6.60;2.20;;;;;;;-5.50;74.41;98863.73;104902;1271;74194;-23
2022/02/03 22:51:06;;;;;;;3.70;2.50;;;;;;;-4.94;74.94;98866.35;104973;1271;62668;-23
2022/02/03 22:53:35;;;;;;;4.10;2.20;;;;;;;-3.84;72.67;98866.20;104671;1271;61445;-23
2022/02/03 22:56:08;;;;;;;5.10;3.40;;;;;;;-3.38;71.20;98866.70;104797;1271;74506;-23
2022/02/03 23:01:24;;;;;;;6.50;2.60;;;;;;;-3.65;71.18;98867.05;104969;1271;74168;-23
2022/02/03 23:03:53;;;;;;;7.40;2.60;;;;;;;-3.87;71.21;98867.30;105164;1271;61135;-23
2022/02/03 23:06:21;;;;;;;5.90;2.60;;;;;;;-4.10;71.58;98869.38;105062;1271;61985;-23
2022/02/03 23:08:55;;;;;;;7.20;3.10;;;;;;;-4.29;72.48;98866.77;104905;1270;74532;-23
2022/02/03 23:11:48;;;;;;;4.80;2.90;;;;;;;-4.45;73.25;98869.01;104900;1271;76033;-23
2022/02/03 23:17:31;;;;;;;4.50;2.60;;;;;;;-4.73;73.01;98867.94;104973;1272;61107;-23
2022/02/03 23:20:10;;;;;;;5.60;2.40;;;;;;;-4.91;72.72;98862.58;105158;1271;62611;-23
2022/02/03 23:22:41;;;;;;;3.20;2.40;;;;;;;-5.11;74.00;98860.09;105154;1271;75643;-23
2022/02/03 23:25:16;;;;;;;5.30;2.70;;;;;;;-5.24;76.65;98857.13;105101;1271;76121;-23
2022/02/03 23:30:19;;;;;;;8.10;3.70;;;;;;;-3.56;74.91;98858.52;104890;1271;61418;-23
2022/02/03 23:32:50;;;;;;;8.40;3.70;;;;;;;-3.17;73.04;98853.37;104907;1271;62049;-23
2022/02/03 23:35:28;;;;;;;9.60;5.00;;;;;;;-3.22;72.67;98852.34;105051;1271;75493;-23
2022/02/03 23:38:14;;;;;;;6.90;4.20;;;;;;;-3.41;72.84;98856.41;105156;1271;73946;-23
2022/02/03 23:41:13;;;;;;;3.50;2.40;;;;;;;-3.57;73.27;98851.23;105112;1271;73584;-23
2022/02/03 23:49:46;;;;;;;5.80;3.20;;;;;;;-4.18;73.59;98854.80;105169;1271;74033;-23
